Knottingley, United Kingdom
Current Conditions -  °F | °C
As of 5:20 PM on Tuesday 21 Oct 2014 (Local Time) from EGNM Reporting Station
Few Clouds Few Clouds  
Wind Chill: 35°   Ceiling: Unl
Heat Index: 45°   Visibility: 6mi
Dew Point: 34°   Wind: 25mph
Humidity: 66%   Direction: 290°WNW
Pressure: 29.74"   Gusts: 37mph
Location:  53.71°N, 1.26°W
Report Text: EGNM 211620Z 29022G32KT 9999 FEW028CB 07/01 Q1007
Loading
Personal Weather Stations






























Interactive Weather Map
Tropical Storm Tracking
New forecast layout! Learn more

10-Day Weather Forecast

Advertisements
Track Severe Weather on mobile